الصفحة الرئيسية
METAR-TAF:

METAR-TAF

مطار :

ترات, تايلاند

دائرة عرض: 12-16-28N, خط طول: 102-19-08E, ارتفاع: 32 متر

مراقبة الطقس الحالي

تاريخ ووقت الإصدار 12ساعات و 37 دقيقة قبل الساعة 09:00UTC
ريح 5 عقدة من الجنوب الغربي
درجة الحرارة 27°درجة مئوية
الرطوبة 89%
ضغط 1007 hPa
الرؤية: 4000 متر
غيوم قليلة على ارتفاع 2000 قدم
ملبد بالغيوم على ارتفاع 10000 قدم
مطر

METAR: VTBO 250900Z 22005KT 4000 RA FEW020 OVC100 27/25 Q1007

زمن: 04:37 (21:37 UTC)

توقعات

تاريخ ووقت الإصدار 4ساعات و 37 دقيقة قبل الساعة 17:00UTC
التوقعات صالحة من25 الساعة 18 UTC إلى 26 الساعة 18 UTC
ريح 8 عقدة من الجنوب الغربي
الرؤية: 9000 متر
غيوم قليلة على ارتفاع 2000 قدم
غيوم متفرقة على ارتفاع 10000 قدم
مؤقت
من 26 الساعة 08 UTC إلى 26 الساعة 14 UTC
ريح 15 عقدةمن اتجاهات متغيرة
الرؤية: 3000 متر
غيوم قليلة على ارتفاع 1800 قدم, مزنة ركامية.
غيوم متفرقة على ارتفاع 3000 قدم
غيوم مفككة على ارتفاع 10000 قدم
عاصفة رعدية, مطر

TAF: VTBO 251700Z 2518/2618 22008KT 9000 FEW020 SCT100 TEMPO 2608/2614 VRB15KT 3000 TSRA FEW018CB SCT030 BKN100

أرصاد الطقس والتوقعات من أكثر من 4000 مطار (تقارير الطقس للمطار METAR والتنبؤ بالطقس بالمطارTAF).

المحطات المتاحة هي النقط الصفراء والحمراء على الخريطة.

حرك المؤشر فوق النقطة لمعرفة اسم المحطة.

ثم انقر لمعرفة أرصاد وتوقعات الطقس.

لتغيير الخارطة: اضغط على الأزرار الخضراء مع رمز الصليب الأسود للتكبير. على الزر الأخضر مع شرطة للتصغير، أو على الأسهم الخضراء للخرائط المجاورة.


METAR-TAF: